»·PEaware :: QXE2617 KSEA-KPDX

QXE2617 :: KSEA-KPDX

FLIGHT INFORMATION

Flight Status: Arrived
Operator:
Horizon Air
More flights by this operator :: More flights under this callsign
Pilot: Anonymous 16342 (16342)
Aircraft: DEHAVILLAND DASH 8 400
(DH8D)
More flights by this aircraft type
Origin: KSEA Seattle-Tacoma Intl
United States
Destination: KPDX Portland Intl
United States
More flights between these airports :: More routes between these airports
Route: +SEA BUWZO KRATR2
File this flight plan on PilotEdge
Remarks:
Altitude:
(Current/Filed)
17,000ft
Speed:
(Current/Filed)
319kts
Departed: 25-Sep-18 06:12 PM
Arrived: 25-Sep-18 06:48 PM
Distance/Time
Traveled:
112nm/0:36
Distance/Time
To Go:
Arrived

Flight Plot

Page will automatically refresh every two minutes.


Map Options




Map Legend


Flown Route
Filed Route
Departure Airport
Arrival Airport
Navaid (VOR, NDB)
Fix

Horizontal Profiles

Position Reports

Time Latitude Longitude Heading Altitude Ground
Speed
25-Sep-18 17:54 47.440501 -122.304385 43 440ft 0kts
25-Sep-18 17:55 47.440501 -122.304385 43 440ft 0kts
25-Sep-18 17:56 47.440501 -122.304385 43 440ft 0kts
25-Sep-18 17:57 47.440501 -122.304385 43 440ft 0kts
25-Sep-18 17:58 47.440501 -122.304385 43 440ft 0kts
25-Sep-18 17:59 47.440501 -122.304385 43 440ft 0kts
25-Sep-18 18:00 47.440501 -122.304385 43 440ft 0kts
25-Sep-18 18:01 47.440501 -122.304385 43 440ft 0kts
25-Sep-18 18:02 47.440501 -122.304385 43 440ft 0kts
25-Sep-18 18:03 47.440501 -122.304385 43 440ft 0kts
25-Sep-18 18:04 47.440501 -122.304385 43 440ft 0kts
25-Sep-18 18:05 47.440407 -122.304506 34 440ft 2kts
25-Sep-18 18:06 47.439902 -122.304423 280 440ft 2kts
25-Sep-18 18:07 47.439894 -122.304149 270 440ft 0kts
25-Sep-18 18:08 47.439894 -122.304149 270 440ft 0kts
25-Sep-18 18:09 47.439894 -122.304146 270 440ft 0kts
25-Sep-18 18:10 47.439311 -122.306394 183 440ft 12kts
25-Sep-18 18:11 47.438045 -122.309042 270 440ft 13kts
25-Sep-18 18:12 47.438046 -122.309830 270 440ft 0kts
25-Sep-18 18:13 47.438046 -122.309944 270 440ft 3kts
25-Sep-18 18:14 47.448365 -122.311250 357 450ft 133kts
25-Sep-18 18:15 47.493103 -122.312017 1 2389ft 167kts
25-Sep-18 18:16 47.545772 -122.310842 340 3718ft 217kts
25-Sep-18 18:17 47.597226 -122.354352 322 6145ft 231kts
25-Sep-18 18:18 47.596543 -122.434698 206 8447ft 237kts
25-Sep-18 18:19 47.532864 -122.431608 169 10597ft 248kts
25-Sep-18 18:20 47.464251 -122.414690 167 12126ft 275kts
25-Sep-18 18:21 47.390647 -122.397757 171 13759ft 285kts
25-Sep-18 18:22 47.313190 -122.381748 172 15208ft 294kts
25-Sep-18 18:23 47.233836 -122.365472 172 16483ft 302kts
25-Sep-18 18:24 47.151032 -122.348799 172 16979ft 329kts
25-Sep-18 18:25 47.060053 -122.330834 173 16991ft 350kts
25-Sep-18 18:26 46.965093 -122.312157 173 16992ft 356kts
25-Sep-18 18:27 46.870557 -122.308655 182 16988ft 356kts
25-Sep-18 18:28 46.776656 -122.309952 181 16984ft 357kts
25-Sep-18 18:29 46.682024 -122.309765 181 16980ft 357kts
25-Sep-18 18:30 46.587685 -122.309731 181 16972ft 357kts
25-Sep-18 18:31 46.493833 -122.309677 181 16965ft 357kts
25-Sep-18 18:32 46.400825 -122.309705 181 16959ft 356kts
25-Sep-18 18:33 46.308878 -122.309583 181 15233ft 339kts
25-Sep-18 18:34 46.223004 -122.326539 203 13076ft 320kts
25-Sep-18 18:35 46.148489 -122.370435 203 11189ft 301kts
25-Sep-18 18:36 46.077773 -122.410649 200 10067ft 256kts
25-Sep-18 18:37 46.015140 -122.444681 198 8439ft 242kts
25-Sep-18 18:38 45.951557 -122.478003 197 7062ft 251kts
25-Sep-18 18:39 45.888624 -122.474995 165 6141ft 236kts
25-Sep-18 18:40 45.831343 -122.456963 164 6005ft 218kts
25-Sep-18 18:41 45.783588 -122.441699 165 5491ft 224kts
25-Sep-18 18:42 45.713508 -122.422340 167 4499ft 221kts
25-Sep-18 18:43 45.669036 -122.410164 167 3625ft 192kts
25-Sep-18 18:44 45.611315 -122.394252 167 1986ft 178kts
25-Sep-18 18:45 45.573308 -122.408789 210 1981ft 173kts
25-Sep-18 18:46 45.546632 -122.459718 284 1737ft 149kts
25-Sep-18 18:47 45.559040 -122.502665 296 1058ft 139kts
25-Sep-18 18:48 45.575789 -122.547554 300 387ft 126kts
25-Sep-18 18:49 45.591076 -122.586244 298 26ft 69kts
25-Sep-18 18:50 45.594169 -122.595655 223 25ft 0kts
25-Sep-18 18:51 45.592003 -122.597218 123 25ft 8kts
25-Sep-18 18:52 45.591784 -122.596680 115 25ft 0kts

Navigation Log

Ident Type
Flight plan parsing failed, navigation log unavailable